sensor_id;sensor_type;location;lat;lon;timestamp;temperature;humidity
18577;DHT22;9418;52.694;13.294;2022-10-31T00:01:10;9.80;98.40
18577;DHT22;9418;52.694;13.294;2022-10-31T00:03:36;9.70;96.50
18577;DHT22;9418;52.694;13.294;2022-10-31T00:06:03;9.70;96.10
18577;DHT22;9418;52.694;13.294;2022-10-31T00:08:31;9.70;96.10
18577;DHT22;9418;52.694;13.294;2022-10-31T00:10:58;9.70;95.70
18577;DHT22;9418;52.694;13.294;2022-10-31T00:13:24;9.70;94.00
18577;DHT22;9418;52.694;13.294;2022-10-31T00:15:51;9.70;93.40
18577;DHT22;9418;52.694;13.294;2022-10-31T00:18:17;9.70;93.70
18577;DHT22;9418;52.694;13.294;2022-10-31T00:20:44;9.70;98.20
18577;DHT22;9418;52.694;13.294;2022-10-31T00:23:11;9.70;97.30
18577;DHT22;9418;52.694;13.294;2022-10-31T00:25:39;9.70;99.90
18577;DHT22;9418;52.694;13.294;2022-10-31T00:28:07;9.60;98.80
18577;DHT22;9418;52.694;13.294;2022-10-31T00:30:35;9.60;99.90
18577;DHT22;9418;52.694;13.294;2022-10-31T00:33:03;9.60;99.90
18577;DHT22;9418;52.694;13.294;2022-10-31T00:35:29;9.50;99.90
18577;DHT22;9418;52.694;13.294;2022-10-31T00:37:56;9.50;99.70
18577;DHT22;9418;52.694;13.294;2022-10-31T00:40:23;9.50;94.40
18577;DHT22;9418;52.694;13.294;2022-10-31T00:42:50;9.50;91.20
18577;DHT22;9418;52.694;13.294;2022-10-31T00:45:17;9.50;90.50
18577;DHT22;9418;52.694;13.294;2022-10-31T00:47:44;9.50;90.20
18577;DHT22;9418;52.694;13.294;2022-10-31T00:50:10;9.40;90.40
18577;DHT22;9418;52.694;13.294;2022-10-31T00:52:37;9.40;89.10
18577;DHT22;9418;52.694;13.294;2022-10-31T00:55:04;9.40;91.60
18577;DHT22;9418;52.694;13.294;2022-10-31T00:57:30;9.40;91.30
18577;DHT22;9418;52.694;13.294;2022-10-31T00:59:58;9.30;92.50
18577;DHT22;9418;52.694;13.294;2022-10-31T01:02:25;9.30;92.90
18577;DHT22;9418;52.694;13.294;2022-10-31T01:04:51;9.30;91.40
18577;DHT22;9418;52.694;13.294;2022-10-31T01:07:18;9.40;90.40
18577;DHT22;9418;52.694;13.294;2022-10-31T01:09:44;9.40;90.70
18577;DHT22;9418;52.694;13.294;2022-10-31T01:12:11;9.30;92.90
18577;DHT22;9418;52.694;13.294;2022-10-31T01:14:37;9.30;95.80
18577;DHT22;9418;52.694;13.294;2022-10-31T01:17:05;9.30;97.40
18577;DHT22;9418;52.694;13.294;2022-10-31T01:19:32;9.30;98.70
18577;DHT22;9418;52.694;13.294;2022-10-31T01:21:59;9.30;99.30
18577;DHT22;9418;52.694;13.294;2022-10-31T01:24:25;9.30;98.80
18577;DHT22;9418;52.694;13.294;2022-10-31T01:26:52;9.30;99.20
18577;DHT22;9418;52.694;13.294;2022-10-31T01:29:18;9.30;96.70
18577;DHT22;9418;52.694;13.294;2022-10-31T01:31:45;9.20;97.90
18577;DHT22;9418;52.694;13.294;2022-10-31T01:34:16;9.20;96.90
18577;DHT22;9418;52.694;13.294;2022-10-31T01:36:43;9.20;98.00
18577;DHT22;9418;52.694;13.294;2022-10-31T01:39:14;9.20;96.60
18577;DHT22;9418;52.694;13.294;2022-10-31T01:41:44;9.20;96.60
18577;DHT22;9418;52.694;13.294;2022-10-31T01:44:48;9.20;96.70
18577;DHT22;9418;52.694;13.294;2022-10-31T01:47:18;9.20;97.60
18577;DHT22;9418;52.694;13.294;2022-10-31T01:49:50;9.20;96.70
18577;DHT22;9418;52.694;13.294;2022-10-31T01:52:20;9.20;96.40
18577;DHT22;9418;52.694;13.294;2022-10-31T01:54:53;9.10;97.20
18577;DHT22;9418;52.694;13.294;2022-10-31T01:57:21;9.10;96.10
18577;DHT22;9418;52.694;13.294;2022-10-31T01:59:50;9.10;95.20
18577;DHT22;9418;52.694;13.294;2022-10-31T02:02:18;9.20;95.20
18577;DHT22;9418;52.694;13.294;2022-10-31T02:04:48;9.20;95.10
18577;DHT22;9418;52.694;13.294;2022-10-31T02:07:17;9.20;96.50
18577;DHT22;9418;52.694;13.294;2022-10-31T02:09:47;9.10;99.90
18577;DHT22;9418;52.694;13.294;2022-10-31T02:12:16;9.10;99.90
18577;DHT22;9418;52.694;13.294;2022-10-31T02:14:44;9.10;99.20
18577;DHT22;9418;52.694;13.294;2022-10-31T02:17:10;9.10;97.80
18577;DHT22;9418;52.694;13.294;2022-10-31T02:19:58;9.10;98.00
18577;DHT22;9418;52.694;13.294;2022-10-31T02:22:37;9.00;97.70
18577;DHT22;9418;52.694;13.294;2022-10-31T02:25:19;9.00;97.50
18577;DHT22;9418;52.694;13.294;2022-10-31T02:30:53;9.10;93.70
18577;DHT22;9418;52.694;13.294;2022-10-31T02:33:25;9.10;94.60
18577;DHT22;9418;52.694;13.294;2022-10-31T02:35:59;9.10;93.70
18577;DHT22;9418;52.694;13.294;2022-10-31T02:38:37;9.00;93.10
18577;DHT22;9418;52.694;13.294;2022-10-31T02:41:10;9.10;94.10
18577;DHT22;9418;52.694;13.294;2022-10-31T02:43:46;9.10;92.90
18577;DHT22;9418;52.694;13.294;2022-10-31T02:46:21;9.10;93.20
18577;DHT22;9418;52.694;13.294;2022-10-31T02:48:53;9.10;93.60
18577;DHT22;9418;52.694;13.294;2022-10-31T02:51:21;9.00;93.40
18577;DHT22;9418;52.694;13.294;2022-10-31T02:53:48;9.10;93.20
18577;DHT22;9418;52.694;13.294;2022-10-31T02:56:17;9.00;92.80
18577;DHT22;9418;52.694;13.294;2022-10-31T02:58:46;9.00;93.20
18577;DHT22;9418;52.694;13.294;2022-10-31T03:01:44;9.00;93.40
18577;DHT22;9418;52.694;13.294;2022-10-31T03:04:22;9.00;94.10
18577;DHT22;9418;52.694;13.294;2022-10-31T03:06:57;9.00;93.30
18577;DHT22;9418;52.694;13.294;2022-10-31T03:09:33;9.00;94.00
18577;DHT22;9418;52.694;13.294;2022-10-31T03:12:05;9.00;94.10
18577;DHT22;9418;52.694;13.294;2022-10-31T03:14:39;9.00;94.50
18577;DHT22;9418;52.694;13.294;2022-10-31T03:17:13;8.90;97.10
18577;DHT22;9418;52.694;13.294;2022-10-31T03:19:43;8.90;98.10
18577;DHT22;9418;52.694;13.294;2022-10-31T03:22:16;8.90;98.60
18577;DHT22;9418;52.694;13.294;2022-10-31T03:24:43;8.90;98.20
18577;DHT22;9418;52.694;13.294;2022-10-31T03:27:13;8.90;97.00
18577;DHT22;9418;52.694;13.294;2022-10-31T03:29:42;8.90;96.90
18577;DHT22;9418;52.694;13.294;2022-10-31T03:32:15;8.90;98.60
18577;DHT22;9418;52.694;13.294;2022-10-31T03:34:44;8.90;96.90
18577;DHT22;9418;52.694;13.294;2022-10-31T03:37:14;8.90;97.80
18577;DHT22;9418;52.694;13.294;2022-10-31T03:39:43;8.90;96.80
18577;DHT22;9418;52.694;13.294;2022-10-31T03:42:14;8.90;97.20
18577;DHT22;9418;52.694;13.294;2022-10-31T03:44:45;8.90;96.10
18577;DHT22;9418;52.694;13.294;2022-10-31T03:47:14;9.00;96.30
18577;DHT22;9418;52.694;13.294;2022-10-31T03:49:41;9.00;95.30
18577;DHT22;9418;52.694;13.294;2022-10-31T03:52:16;9.00;95.10
18577;DHT22;9418;52.694;13.294;2022-10-31T03:54:46;9.00;94.10
18577;DHT22;9418;52.694;13.294;2022-10-31T03:57:22;9.00;94.70
18577;DHT22;9418;52.694;13.294;2022-10-31T03:59:53;8.90;94.90
18577;DHT22;9418;52.694;13.294;2022-10-31T04:02:26;8.90;96.10
18577;DHT22;9418;52.694;13.294;2022-10-31T04:04:54;9.00;94.60
18577;DHT22;9418;52.694;13.294;2022-10-31T04:07:22;9.00;94.20
18577;DHT22;9418;52.694;13.294;2022-10-31T04:09:52;9.00;93.80
18577;DHT22;9418;52.694;13.294;2022-10-31T04:12:20;9.00;93.20
18577;DHT22;9418;52.694;13.294;2022-10-31T04:14:48;9.00;93.30
18577;DHT22;9418;52.694;13.294;2022-10-31T04:17:19;9.00;92.80
18577;DHT22;9418;52.694;13.294;2022-10-31T04:19:48;9.00;93.70
18577;DHT22;9418;52.694;13.294;2022-10-31T04:22:15;9.00;95.00
18577;DHT22;9418;52.694;13.294;2022-10-31T04:24:41;8.90;94.60
18577;DHT22;9418;52.694;13.294;2022-10-31T04:27:08;8.90;93.30
18577;DHT22;9418;52.694;13.294;2022-10-31T04:29:35;8.90;93.90
18577;DHT22;9418;52.694;13.294;2022-10-31T04:32:01;8.90;95.20
18577;DHT22;9418;52.694;13.294;2022-10-31T04:34:28;8.90;94.20
18577;DHT22;9418;52.694;13.294;2022-10-31T04:36:56;8.90;93.20
18577;DHT22;9418;52.694;13.294;2022-10-31T04:39:22;8.90;94.20
18577;DHT22;9418;52.694;13.294;2022-10-31T04:41:49;8.90;93.80
18577;DHT22;9418;52.694;13.294;2022-10-31T04:44:16;8.90;93.30
18577;DHT22;9418;52.694;13.294;2022-10-31T04:46:42;8.80;93.50
18577;DHT22;9418;52.694;13.294;2022-10-31T04:49:09;8.80;92.70
18577;DHT22;9418;52.694;13.294;2022-10-31T04:51:36;8.90;92.30
18577;DHT22;9418;52.694;13.294;2022-10-31T04:54:04;8.80;92.90
18577;DHT22;9418;52.694;13.294;2022-10-31T04:56:31;8.90;94.50
18577;DHT22;9418;52.694;13.294;2022-10-31T04:58:57;8.80;94.50
18577;DHT22;9418;52.694;13.294;2022-10-31T05:01:24;8.80;94.30
18577;DHT22;9418;52.694;13.294;2022-10-31T05:03:51;8.80;93.50
18577;DHT22;9418;52.694;13.294;2022-10-31T05:06:17;8.80;93.50
18577;DHT22;9418;52.694;13.294;2022-10-31T05:08:44;8.80;93.60
18577;DHT22;9418;52.694;13.294;2022-10-31T05:11:12;8.80;92.30
18577;DHT22;9418;52.694;13.294;2022-10-31T05:13:38;8.80;93.00
18577;DHT22;9418;52.694;13.294;2022-10-31T05:16:05;8.80;93.60
18577;DHT22;9418;52.694;13.294;2022-10-31T05:18:32;8.80;95.00
18577;DHT22;9418;52.694;13.294;2022-10-31T05:20:59;8.80;95.00
18577;DHT22;9418;52.694;13.294;2022-10-31T05:23:26;8.80;95.00
18577;DHT22;9418;52.694;13.294;2022-10-31T05:25:52;8.80;95.40
18577;DHT22;9418;52.694;13.294;2022-10-31T05:28:20;8.80;94.50
18577;DHT22;9418;52.694;13.294;2022-10-31T05:30:47;8.80;93.90
18577;DHT22;9418;52.694;13.294;2022-10-31T05:33:13;8.80;93.70
18577;DHT22;9418;52.694;13.294;2022-10-31T05:35:40;8.80;93.00
18577;DHT22;9418;52.694;13.294;2022-10-31T05:38:07;8.80;93.50
18577;DHT22;9418;52.694;13.294;2022-10-31T05:40:33;8.80;93.80
18577;DHT22;9418;52.694;13.294;2022-10-31T05:43:00;8.80;94.60
18577;DHT22;9418;52.694;13.294;2022-10-31T05:45:28;8.80;92.60
18577;DHT22;9418;52.694;13.294;2022-10-31T05:47:56;8.80;91.50
18577;DHT22;9418;52.694;13.294;2022-10-31T05:50:24;8.80;90.70
18577;DHT22;9418;52.694;13.294;2022-10-31T05:52:55;8.80;90.40
18577;DHT22;9418;52.694;13.294;2022-10-31T05:55:22;8.90;89.60
18577;DHT22;9418;52.694;13.294;2022-10-31T05:57:48;8.90;87.80
18577;DHT22;9418;52.694;13.294;2022-10-31T06:00:15;8.90;87.00
18577;DHT22;9418;52.694;13.294;2022-10-31T06:02:43;9.00;87.70
18577;DHT22;9418;52.694;13.294;2022-10-31T06:05:09;9.00;86.30
18577;DHT22;9418;52.694;13.294;2022-10-31T06:07:36;9.00;86.40
18577;DHT22;9418;52.694;13.294;2022-10-31T06:10:05;9.00;85.70
18577;DHT22;9418;52.694;13.294;2022-10-31T06:12:32;9.00;84.70
18577;DHT22;9418;52.694;13.294;2022-10-31T06:15:03;9.10;83.80
18577;DHT22;9418;52.694;13.294;2022-10-31T06:17:30;9.10;83.80
18577;DHT22;9418;52.694;13.294;2022-10-31T06:19:58;9.10;86.10
18577;DHT22;9418;52.694;13.294;2022-10-31T06:22:24;9.20;88.50
18577;DHT22;9418;52.694;13.294;2022-10-31T06:24:51;9.10;89.90
18577;DHT22;9418;52.694;13.294;2022-10-31T06:27:18;9.10;89.50
18577;DHT22;9418;52.694;13.294;2022-10-31T06:29:44;9.10;87.60
18577;DHT22;9418;52.694;13.294;2022-10-31T06:32:12;9.20;86.00
18577;DHT22;9418;52.694;13.294;2022-10-31T06:34:39;9.20;87.90
18577;DHT22;9418;52.694;13.294;2022-10-31T06:37:07;9.30;88.20
18577;DHT22;9418;52.694;13.294;2022-10-31T06:39:35;9.30;88.80
18577;DHT22;9418;52.694;13.294;2022-10-31T06:42:02;9.40;88.70
18577;DHT22;9418;52.694;13.294;2022-10-31T06:44:28;9.40;88.40
18577;DHT22;9418;52.694;13.294;2022-10-31T06:46:55;9.50;87.50
18577;DHT22;9418;52.694;13.294;2022-10-31T06:49:22;9.50;86.00
18577;DHT22;9418;52.694;13.294;2022-10-31T06:51:49;9.60;85.40
18577;DHT22;9418;52.694;13.294;2022-10-31T06:54:17;9.70;82.10
18577;DHT22;9418;52.694;13.294;2022-10-31T06:56:45;9.80;82.50
18577;DHT22;9418;52.694;13.294;2022-10-31T06:59:12;9.90;81.50
18577;DHT22;9418;52.694;13.294;2022-10-31T07:01:39;10.00;80.40
18577;DHT22;9418;52.694;13.294;2022-10-31T07:04:05;10.10;77.80
18577;DHT22;9418;52.694;13.294;2022-10-31T07:06:32;10.30;76.50
18577;DHT22;9418;52.694;13.294;2022-10-31T07:08:58;10.50;76.70
18577;DHT22;9418;52.694;13.294;2022-10-31T07:11:26;10.80;78.70
18577;DHT22;9418;52.694;13.294;2022-10-31T07:13:53;10.90;88.40
18577;DHT22;9418;52.694;13.294;2022-10-31T07:16:19;11.10;92.70
18577;DHT22;9418;52.694;13.294;2022-10-31T07:18:46;11.40;99.90
18577;DHT22;9418;52.694;13.294;2022-10-31T07:21:13;11.70;99.90
18577;DHT22;9418;52.694;13.294;2022-10-31T07:23:39;12.00;99.90
18577;DHT22;9418;52.694;13.294;2022-10-31T07:26:07;12.20;99.90
18577;DHT22;9418;52.694;13.294;2022-10-31T07:28:35;12.60;99.90
18577;DHT22;9418;52.694;13.294;2022-10-31T07:31:02;12.70;99.90
18577;DHT22;9418;52.694;13.294;2022-10-31T07:33:28;12.90;99.90
18577;DHT22;9418;52.694;13.294;2022-10-31T07:35:55;13.10;99.90
18577;DHT22;9418;52.694;13.294;2022-10-31T07:38:21;13.10;99.90
18577;DHT22;9418;52.694;13.294;2022-10-31T07:40:50;12.80;99.90
18577;DHT22;9418;52.694;13.294;2022-10-31T07:43:18;12.70;99.90
18577;DHT22;9418;52.694;13.294;2022-10-31T07:45:50;12.50;99.90
18577;DHT22;9418;52.694;13.294;2022-10-31T07:48:17;12.40;99.90
18577;DHT22;9418;52.694;13.294;2022-10-31T07:50:44;12.30;99.90
18577;DHT22;9418;52.694;13.294;2022-10-31T07:53:12;12.20;99.90
18577;DHT22;9418;52.694;13.294;2022-10-31T07:55:39;12.00;99.90
18577;DHT22;9418;52.694;13.294;2022-10-31T07:58:07;12.00;99.90
18577;DHT22;9418;52.694;13.294;2022-10-31T08:00:35;11.90;99.90
18577;DHT22;9418;52.694;13.294;2022-10-31T08:03:05;11.80;99.90
18577;DHT22;9418;52.694;13.294;2022-10-31T08:05:33;11.80;99.90
18577;DHT22;9418;52.694;13.294;2022-10-31T08:07:59;11.80;99.90
18577;DHT22;9418;52.694;13.294;2022-10-31T08:10:27;11.80;99.90
18577;DHT22;9418;52.694;13.294;2022-10-31T08:12:57;12.10;99.90
18577;DHT22;9418;52.694;13.294;2022-10-31T08:15:24;12.30;99.90
18577;DHT22;9418;52.694;13.294;2022-10-31T08:17:52;12.50;99.90
18577;DHT22;9418;52.694;13.294;2022-10-31T08:20:20;12.70;99.90
18577;DHT22;9418;52.694;13.294;2022-10-31T08:22:57;12.80;99.90
18577;DHT22;9418;52.694;13.294;2022-10-31T08:25:25;12.80;99.90
18577;DHT22;9418;52.694;13.294;2022-10-31T08:27:53;12.70;99.90
18577;DHT22;9418;52.694;13.294;2022-10-31T08:30:21;12.70;99.90
18577;DHT22;9418;52.694;13.294;2022-10-31T08:32:57;12.70;99.90
18577;DHT22;9418;52.694;13.294;2022-10-31T08:35:25;12.70;99.90
18577;DHT22;9418;52.694;13.294;2022-10-31T08:37:52;12.70;99.90
18577;DHT22;9418;52.694;13.294;2022-10-31T08:40:20;13.00;99.90
18577;DHT22;9418;52.694;13.294;2022-10-31T08:42:46;13.60;99.90
18577;DHT22;9418;52.694;13.294;2022-10-31T08:45:13;14.10;99.90
18577;DHT22;9418;52.694;13.294;2022-10-31T08:47:40;14.50;44.60
18577;DHT22;9418;52.694;13.294;2022-10-31T08:50:07;14.80;53.90
18577;DHT22;9418;52.694;13.294;2022-10-31T08:52:35;15.40;85.50
18577;DHT22;9418;52.694;13.294;2022-10-31T08:55:01;16.00;99.90
18577;DHT22;9418;52.694;13.294;2022-10-31T08:57:28;16.50;99.90
18577;DHT22;9418;52.694;13.294;2022-10-31T08:59:54;16.50;99.90
18577;DHT22;9418;52.694;13.294;2022-10-31T09:02:21;16.70;99.90
18577;DHT22;9418;52.694;13.294;2022-10-31T09:04:47;16.80;99.90
18577;DHT22;9418;52.694;13.294;2022-10-31T09:07:14;16.60;99.90
18577;DHT22;9418;52.694;13.294;2022-10-31T09:09:42;16.50;99.90
18577;DHT22;9418;52.694;13.294;2022-10-31T09:12:09;16.20;99.90
18577;DHT22;9418;52.694;13.294;2022-10-31T09:14:35;16.30;99.90
18577;DHT22;9418;52.694;13.294;2022-10-31T09:17:02;16.50;99.90
18577;DHT22;9418;52.694;13.294;2022-10-31T09:19:28;16.40;99.90
18577;DHT22;9418;52.694;13.294;2022-10-31T09:21:55;16.20;99.90
18577;DHT22;9418;52.694;13.294;2022-10-31T09:24:22;16.00;99.90
18577;DHT22;9418;52.694;13.294;2022-10-31T09:26:50;15.80;99.90
18577;DHT22;9418;52.694;13.294;2022-10-31T09:29:16;15.80;99.90
18577;DHT22;9418;52.694;13.294;2022-10-31T09:31:43;15.90;99.90
18577;DHT22;9418;52.694;13.294;2022-10-31T09:34:09;16.00;99.90
18577;DHT22;9418;52.694;13.294;2022-10-31T09:36:36;16.30;99.90
18577;DHT22;9418;52.694;13.294;2022-10-31T09:39:03;16.60;99.90
18577;DHT22;9418;52.694;13.294;2022-10-31T09:41:40;16.30;99.90
18577;DHT22;9418;52.694;13.294;2022-10-31T09:44:19;16.40;99.90
18577;DHT22;9418;52.694;13.294;2022-10-31T09:46:52;16.70;99.90
18577;DHT22;9418;52.694;13.294;2022-10-31T09:49:37;17.40;99.90
18577;DHT22;9418;52.694;13.294;2022-10-31T09:52:12;18.40;99.90
18577;DHT22;9418;52.694;13.294;2022-10-31T09:54:46;17.80;99.90
18577;DHT22;9418;52.694;13.294;2022-10-31T09:57:18;17.50;99.90
18577;DHT22;9418;52.694;13.294;2022-10-31T09:59:48;17.00;99.90
18577;DHT22;9418;52.694;13.294;2022-10-31T10:02:19;17.40;99.90
18577;DHT22;9418;52.694;13.294;2022-10-31T10:04:51;18.20;99.90
18577;DHT22;9418;52.694;13.294;2022-10-31T10:07:25;18.40;99.90
18577;DHT22;9418;52.694;13.294;2022-10-31T10:09:55;17.70;99.90
18577;DHT22;9418;52.694;13.294;2022-10-31T10:12:36;17.50;99.90
18577;DHT22;9418;52.694;13.294;2022-10-31T10:15:24;17.50;99.90
18577;DHT22;9418;52.694;13.294;2022-10-31T10:17:59;18.10;99.90
18577;DHT22;9418;52.694;13.294;2022-10-31T10:20:33;17.90;99.90
18577;DHT22;9418;52.694;13.294;2022-10-31T10:23:14;17.70;1.40
18577;DHT22;9418;52.694;13.294;2022-10-31T10:25:46;18.30;99.90
18577;DHT22;9418;52.694;13.294;2022-10-31T10:28:19;17.90;99.90
18577;DHT22;9418;52.694;13.294;2022-10-31T10:30:51;17.50;99.90
18577;DHT22;9418;52.694;13.294;2022-10-31T10:33:22;17.50;99.90
18577;DHT22;9418;52.694;13.294;2022-10-31T10:35:52;17.40;99.90
18577;DHT22;9418;52.694;13.294;2022-10-31T10:38:25;17.50;99.90
18577;DHT22;9418;52.694;13.294;2022-10-31T10:40:53;17.90;99.90
18577;DHT22;9418;52.694;13.294;2022-10-31T10:43:23;17.90;99.90
18577;DHT22;9418;52.694;13.294;2022-10-31T10:46:03;17.70;99.90
18577;DHT22;9418;52.694;13.294;2022-10-31T10:48:53;17.50;99.90
18577;DHT22;9418;52.694;13.294;2022-10-31T10:51:23;17.40;99.90
18577;DHT22;9418;52.694;13.294;2022-10-31T10:54:10;17.60;99.90
18577;DHT22;9418;52.694;13.294;2022-10-31T10:56:47;18.00;99.90
18577;DHT22;9418;52.694;13.294;2022-10-31T10:59:18;17.80;99.90
18577;DHT22;9418;52.694;13.294;2022-10-31T11:01:49;17.80;99.90
18577;DHT22;9418;52.694;13.294;2022-10-31T11:04:29;18.00;99.90
18577;DHT22;9418;52.694;13.294;2022-10-31T11:07:01;17.90;99.90
18577;DHT22;9418;52.694;13.294;2022-10-31T11:09:28;18.00;99.90
18577;DHT22;9418;52.694;13.294;2022-10-31T11:11:55;18.70;99.90
18577;DHT22;9418;52.694;13.294;2022-10-31T11:14:22;18.90;99.90
18577;DHT22;9418;52.694;13.294;2022-10-31T11:16:53;18.50;99.90
18577;DHT22;9418;52.694;13.294;2022-10-31T11:19:23;19.10;99.90
18577;DHT22;9418;52.694;13.294;2022-10-31T11:21:50;19.30;99.90
18577;DHT22;9418;52.694;13.294;2022-10-31T11:24:19;19.50;99.90
18577;DHT22;9418;52.694;13.294;2022-10-31T11:26:47;18.80;99.90
18577;DHT22;9418;52.694;13.294;2022-10-31T11:29:17;18.40;99.90
18577;DHT22;9418;52.694;13.294;2022-10-31T11:31:46;18.40;99.90
18577;DHT22;9418;52.694;13.294;2022-10-31T11:34:27;18.10;99.90
18577;DHT22;9418;52.694;13.294;2022-10-31T11:36:54;18.00;99.90
18577;DHT22;9418;52.694;13.294;2022-10-31T11:39:24;18.10;99.90
18577;DHT22;9418;52.694;13.294;2022-10-31T11:41:52;18.00;99.90
18577;DHT22;9418;52.694;13.294;2022-10-31T11:44:22;18.00;99.90
18577;DHT22;9418;52.694;13.294;2022-10-31T11:46:51;18.10;99.90
18577;DHT22;9418;52.694;13.294;2022-10-31T11:49:25;18.00;99.90
18577;DHT22;9418;52.694;13.294;2022-10-31T11:51:56;18.10;99.90
18577;DHT22;9418;52.694;13.294;2022-10-31T11:54:27;18.00;99.90
18577;DHT22;9418;52.694;13.294;2022-10-31T11:56:54;18.20;99.90
18577;DHT22;9418;52.694;13.294;2022-10-31T11:59:25;18.20;99.90
18577;DHT22;9418;52.694;13.294;2022-10-31T12:01:53;18.40;99.90
18577;DHT22;9418;52.694;13.294;2022-10-31T12:04:29;18.50;99.90
18577;DHT22;9418;52.694;13.294;2022-10-31T12:06:57;18.50;99.90
18577;DHT22;9418;52.694;13.294;2022-10-31T12:09:27;18.30;99.90
18577;DHT22;9418;52.694;13.294;2022-10-31T12:12:10;18.20;99.90
18577;DHT22;9418;52.694;13.294;2022-10-31T12:14:46;18.40;99.90
18577;DHT22;9418;52.694;13.294;2022-10-31T12:17:18;18.50;99.90
18577;DHT22;9418;52.694;13.294;2022-10-31T12:20:00;18.50;99.90
18577;DHT22;9418;52.694;13.294;2022-10-31T12:22:34;18.40;99.90
18577;DHT22;9418;52.694;13.294;2022-10-31T12:25:24;18.40;99.90
18577;DHT22;9418;52.694;13.294;2022-10-31T12:28:03;18.20;99.90
18577;DHT22;9418;52.694;13.294;2022-10-31T12:30:46;18.20;99.90
18577;DHT22;9418;52.694;13.294;2022-10-31T12:33:25;18.20;99.90
18577;DHT22;9418;52.694;13.294;2022-10-31T12:36:07;18.30;99.90
18577;DHT22;9418;52.694;13.294;2022-10-31T12:38:49;18.10;99.90
18577;DHT22;9418;52.694;13.294;2022-10-31T12:41:30;18.40;99.90
18577;DHT22;9418;52.694;13.294;2022-10-31T12:44:05;18.30;99.90
18577;DHT22;9418;52.694;13.294;2022-10-31T12:46:51;18.30;99.90
18577;DHT22;9418;52.694;13.294;2022-10-31T12:49:38;18.10;99.90
18577;DHT22;9418;52.694;13.294;2022-10-31T12:52:20;17.70;99.90
18577;DHT22;9418;52.694;13.294;2022-10-31T12:55:06;17.30;99.90
18577;DHT22;9418;52.694;13.294;2022-10-31T12:57:40;17.00;99.90
18577;DHT22;9418;52.694;13.294;2022-10-31T13:00:13;16.80;85.40
18577;DHT22;9418;52.694;13.294;2022-10-31T13:02:44;16.70;78.00
18577;DHT22;9418;52.694;13.294;2022-10-31T13:05:17;16.50;71.80
18577;DHT22;9418;52.694;13.294;2022-10-31T13:07:52;16.40;64.60
18577;DHT22;9418;52.694;13.294;2022-10-31T13:10:24;16.40;61.80
18577;DHT22;9418;52.694;13.294;2022-10-31T13:12:54;16.20;54.10
18577;DHT22;9418;52.694;13.294;2022-10-31T13:15:25;16.10;49.20
18577;DHT22;9418;52.694;13.294;2022-10-31T13:17:55;16.00;43.00
18577;DHT22;9418;52.694;13.294;2022-10-31T13:20:25;15.90;39.10
18577;DHT22;9418;52.694;13.294;2022-10-31T13:23:03;15.80;30.70
18577;DHT22;9418;52.694;13.294;2022-10-31T13:25:37;15.70;21.10
18577;DHT22;9418;52.694;13.294;2022-10-31T13:28:12;15.70;85.60
18577;DHT22;9418;52.694;13.294;2022-10-31T13:30:47;15.70;94.30
18577;DHT22;9418;52.694;13.294;2022-10-31T13:33:17;15.50;99.90
18577;DHT22;9418;52.694;13.294;2022-10-31T13:35:50;15.40;99.90
18577;DHT22;9418;52.694;13.294;2022-10-31T13:38:23;15.40;99.90
18577;DHT22;9418;52.694;13.294;2022-10-31T13:40:55;15.30;99.90
18577;DHT22;9418;52.694;13.294;2022-10-31T13:43:31;15.20;99.90
18577;DHT22;9418;52.694;13.294;2022-10-31T13:45:59;15.20;99.90
18577;DHT22;9418;52.694;13.294;2022-10-31T13:48:38;15.20;99.90
18577;DHT22;9418;52.694;13.294;2022-10-31T13:51:08;15.10;99.90
18577;DHT22;9418;52.694;13.294;2022-10-31T13:53:45;15.10;99.90
18577;DHT22;9418;52.694;13.294;2022-10-31T13:56:24;15.00;99.90
18577;DHT22;9418;52.694;13.294;2022-10-31T13:59:15;14.80;99.90
18577;DHT22;9418;52.694;13.294;2022-10-31T14:01:54;14.80;99.90
18577;DHT22;9418;52.694;13.294;2022-10-31T14:04:23;14.70;99.90
18577;DHT22;9418;52.694;13.294;2022-10-31T14:06:57;14.60;99.90
18577;DHT22;9418;52.694;13.294;2022-10-31T14:09:30;14.60;99.90
18577;DHT22;9418;52.694;13.294;2022-10-31T14:12:01;14.50;99.90
18577;DHT22;9418;52.694;13.294;2022-10-31T14:14:32;14.40;99.90
18577;DHT22;9418;52.694;13.294;2022-10-31T14:17:01;14.40;99.90
18577;DHT22;9418;52.694;13.294;2022-10-31T14:19:27;14.40;99.90
18577;DHT22;9418;52.694;13.294;2022-10-31T14:21:54;14.40;99.90
18577;DHT22;9418;52.694;13.294;2022-10-31T14:24:34;14.30;99.90
18577;DHT22;9418;52.694;13.294;2022-10-31T14:27:03;14.30;99.90
18577;DHT22;9418;52.694;13.294;2022-10-31T14:29:32;14.30;99.90
18577;DHT22;9418;52.694;13.294;2022-10-31T14:32:04;14.20;99.90
18577;DHT22;9418;52.694;13.294;2022-10-31T14:34:38;14.20;99.90
18577;DHT22;9418;52.694;13.294;2022-10-31T14:37:44;14.10;99.90
18577;DHT22;9418;52.694;13.294;2022-10-31T14:40:28;14.10;99.90
18577;DHT22;9418;52.694;13.294;2022-10-31T14:43:16;14.10;99.90
18577;DHT22;9418;52.694;13.294;2022-10-31T14:45:51;14.00;99.90
18577;DHT22;9418;52.694;13.294;2022-10-31T14:48:36;14.00;99.90
18577;DHT22;9418;52.694;13.294;2022-10-31T14:51:10;14.00;99.90
18577;DHT22;9418;52.694;13.294;2022-10-31T14:53:48;13.90;99.90
18577;DHT22;9418;52.694;13.294;2022-10-31T14:56:21;14.00;99.90
18577;DHT22;9418;52.694;13.294;2022-10-31T14:58:49;14.00;99.50
18577;DHT22;9418;52.694;13.294;2022-10-31T15:01:21;13.90;95.70
18577;DHT22;9418;52.694;13.294;2022-10-31T15:03:48;14.00;91.00
18577;DHT22;9418;52.694;13.294;2022-10-31T15:06:18;14.00;88.20
18577;DHT22;9418;52.694;13.294;2022-10-31T15:08:47;13.90;84.80
18577;DHT22;9418;52.694;13.294;2022-10-31T15:11:16;13.90;83.80
18577;DHT22;9418;52.694;13.294;2022-10-31T15:13:46;13.90;81.70
18577;DHT22;9418;52.694;13.294;2022-10-31T15:16:15;13.80;78.10
18577;DHT22;9418;52.694;13.294;2022-10-31T15:18:52;13.80;75.10
18577;DHT22;9418;52.694;13.294;2022-10-31T15:21:21;13.80;72.20
18577;DHT22;9418;52.694;13.294;2022-10-31T15:23:49;13.80;69.00
18577;DHT22;9418;52.694;13.294;2022-10-31T15:26:20;13.80;66.10
18577;DHT22;9418;52.694;13.294;2022-10-31T15:28:59;13.70;63.40
18577;DHT22;9418;52.694;13.294;2022-10-31T15:31:27;13.80;60.80
18577;DHT22;9418;52.694;13.294;2022-10-31T15:33:55;13.80;57.70
18577;DHT22;9418;52.694;13.294;2022-10-31T15:36:25;13.80;55.10
18577;DHT22;9418;52.694;13.294;2022-10-31T15:38:52;13.80;53.00
18577;DHT22;9418;52.694;13.294;2022-10-31T15:41:30;13.80;51.20
18577;DHT22;9418;52.694;13.294;2022-10-31T15:44:04;13.80;49.60
18577;DHT22;9418;52.694;13.294;2022-10-31T15:46:33;13.80;48.20
18577;DHT22;9418;52.694;13.294;2022-10-31T15:49:00;13.80;46.40
18577;DHT22;9418;52.694;13.294;2022-10-31T15:51:29;13.70;46.00
18577;DHT22;9418;52.694;13.294;2022-10-31T15:53:57;13.70;45.10
18577;DHT22;9418;52.694;13.294;2022-10-31T15:56:28;13.70;44.90
18577;DHT22;9418;52.694;13.294;2022-10-31T15:58:57;13.60;43.40
18577;DHT22;9418;52.694;13.294;2022-10-31T16:01:27;13.60;42.00